sensor_id;sensor_type;location;lat;lon;timestamp;temperature;humidity
46758;DHT22;32509;47.750;-3.396;2023-07-02T00:01:42;18.20;99.90
46758;DHT22;32509;47.750;-3.396;2023-07-02T00:04:07;18.20;99.90
46758;DHT22;32509;47.750;-3.396;2023-07-02T00:06:39;18.20;99.90
46758;DHT22;32509;47.750;-3.396;2023-07-02T00:09:06;18.20;99.90
46758;DHT22;32509;47.750;-3.396;2023-07-02T00:11:32;18.20;99.90
46758;DHT22;32509;47.750;-3.396;2023-07-02T00:13:58;18.20;99.90
46758;DHT22;32509;47.750;-3.396;2023-07-02T00:16:24;18.20;99.90
46758;DHT22;32509;47.750;-3.396;2023-07-02T00:18:49;18.20;99.90
46758;DHT22;32509;47.750;-3.396;2023-07-02T00:21:19;18.20;99.90
46758;DHT22;32509;47.750;-3.396;2023-07-02T00:23:46;18.20;99.90
46758;DHT22;32509;47.750;-3.396;2023-07-02T00:26:12;18.20;99.90
46758;DHT22;32509;47.750;-3.396;2023-07-02T00:28:38;18.20;99.90
46758;DHT22;32509;47.750;-3.396;2023-07-02T00:31:04;18.20;99.90
46758;DHT22;32509;47.750;-3.396;2023-07-02T00:33:31;18.20;99.90
46758;DHT22;32509;47.750;-3.396;2023-07-02T00:35:57;18.20;99.90
46758;DHT22;32509;47.750;-3.396;2023-07-02T00:38:26;18.20;99.90
46758;DHT22;32509;47.750;-3.396;2023-07-02T00:40:52;18.20;99.90
46758;DHT22;32509;47.750;-3.396;2023-07-02T00:43:17;18.20;99.90
46758;DHT22;32509;47.750;-3.396;2023-07-02T00:45:44;18.20;99.90
46758;DHT22;32509;47.750;-3.396;2023-07-02T00:48:11;18.20;99.90
46758;DHT22;32509;47.750;-3.396;2023-07-02T00:50:37;18.20;99.90
46758;DHT22;32509;47.750;-3.396;2023-07-02T00:53:04;18.20;99.90
46758;DHT22;32509;47.750;-3.396;2023-07-02T00:55:30;18.20;99.90
46758;DHT22;32509;47.750;-3.396;2023-07-02T00:57:56;18.20;99.90
46758;DHT22;32509;47.750;-3.396;2023-07-02T01:00:24;18.20;99.90
46758;DHT22;32509;47.750;-3.396;2023-07-02T01:02:54;18.20;99.90
46758;DHT22;32509;47.750;-3.396;2023-07-02T01:05:22;18.20;99.90
46758;DHT22;32509;47.750;-3.396;2023-07-02T01:07:48;18.20;99.90
46758;DHT22;32509;47.750;-3.396;2023-07-02T01:10:14;18.20;99.90
46758;DHT22;32509;47.750;-3.396;2023-07-02T01:12:41;18.20;99.90
46758;DHT22;32509;47.750;-3.396;2023-07-02T01:15:07;18.20;99.90
46758;DHT22;32509;47.750;-3.396;2023-07-02T01:17:34;18.20;99.90
46758;DHT22;32509;47.750;-3.396;2023-07-02T01:20:08;18.20;99.90
46758;DHT22;32509;47.750;-3.396;2023-07-02T01:22:34;18.20;99.90
46758;DHT22;32509;47.750;-3.396;2023-07-02T01:25:00;18.20;99.90
46758;DHT22;32509;47.750;-3.396;2023-07-02T01:27:29;18.20;99.90
46758;DHT22;32509;47.750;-3.396;2023-07-02T01:29:55;18.20;99.90
46758;DHT22;32509;47.750;-3.396;2023-07-02T01:32:22;18.10;99.90
46758;DHT22;32509;47.750;-3.396;2023-07-02T01:34:48;18.20;99.90
46758;DHT22;32509;47.750;-3.396;2023-07-02T01:37:17;18.20;99.90
46758;DHT22;32509;47.750;-3.396;2023-07-02T01:39:43;18.20;99.90
46758;DHT22;32509;47.750;-3.396;2023-07-02T01:42:11;18.20;99.90
46758;DHT22;32509;47.750;-3.396;2023-07-02T01:44:38;18.20;99.90
46758;DHT22;32509;47.750;-3.396;2023-07-02T01:47:04;18.20;99.90
46758;DHT22;32509;47.750;-3.396;2023-07-02T01:49:31;18.10;99.90
46758;DHT22;32509;47.750;-3.396;2023-07-02T01:51:57;18.20;99.90
46758;DHT22;32509;47.750;-3.396;2023-07-02T01:54:25;18.10;99.90
46758;DHT22;32509;47.750;-3.396;2023-07-02T01:56:54;18.10;99.90
46758;DHT22;32509;47.750;-3.396;2023-07-02T01:59:20;18.10;99.90
46758;DHT22;32509;47.750;-3.396;2023-07-02T02:01:46;18.20;99.90
46758;DHT22;32509;47.750;-3.396;2023-07-02T02:04:13;18.20;99.90
46758;DHT22;32509;47.750;-3.396;2023-07-02T02:06:40;18.20;99.90
46758;DHT22;32509;47.750;-3.396;2023-07-02T02:09:07;18.10;99.90
46758;DHT22;32509;47.750;-3.396;2023-07-02T02:11:34;18.20;99.90
46758;DHT22;32509;47.750;-3.396;2023-07-02T02:14:00;18.10;99.90
46758;DHT22;32509;47.750;-3.396;2023-07-02T02:16:29;18.10;99.90
46758;DHT22;32509;47.750;-3.396;2023-07-02T02:18:55;18.20;99.90
46758;DHT22;32509;47.750;-3.396;2023-07-02T02:21:21;18.20;99.90
46758;DHT22;32509;47.750;-3.396;2023-07-02T02:23:47;18.10;99.90
46758;DHT22;32509;47.750;-3.396;2023-07-02T02:26:13;18.10;99.90
46758;DHT22;32509;47.750;-3.396;2023-07-02T02:28:40;18.10;99.90
46758;DHT22;32509;47.750;-3.396;2023-07-02T02:31:06;18.10;99.90
46758;DHT22;32509;47.750;-3.396;2023-07-02T02:33:32;18.10;99.90
46758;DHT22;32509;47.750;-3.396;2023-07-02T02:35:58;18.10;99.90
46758;DHT22;32509;47.750;-3.396;2023-07-02T02:38:24;18.10;99.90
46758;DHT22;32509;47.750;-3.396;2023-07-02T02:40:49;18.10;99.90
46758;DHT22;32509;47.750;-3.396;2023-07-02T02:43:15;18.10;99.90
46758;DHT22;32509;47.750;-3.396;2023-07-02T02:45:44;18.10;99.90
46758;DHT22;32509;47.750;-3.396;2023-07-02T02:48:10;18.10;99.90
46758;DHT22;32509;47.750;-3.396;2023-07-02T02:50:36;18.10;99.90
46758;DHT22;32509;47.750;-3.396;2023-07-02T02:53:07;18.10;99.90
46758;DHT22;32509;47.750;-3.396;2023-07-02T02:55:33;18.10;99.90
46758;DHT22;32509;47.750;-3.396;2023-07-02T02:57:58;18.10;99.90
46758;DHT22;32509;47.750;-3.396;2023-07-02T03:00:25;18.10;99.90
46758;DHT22;32509;47.750;-3.396;2023-07-02T03:02:50;18.10;99.90
46758;DHT22;32509;47.750;-3.396;2023-07-02T03:05:16;18.00;99.90
46758;DHT22;32509;47.750;-3.396;2023-07-02T03:07:42;18.00;99.90
46758;DHT22;32509;47.750;-3.396;2023-07-02T03:10:08;18.00;99.90
46758;DHT22;32509;47.750;-3.396;2023-07-02T03:12:34;18.00;99.90
46758;DHT22;32509;47.750;-3.396;2023-07-02T03:15:00;18.00;99.90
46758;DHT22;32509;47.750;-3.396;2023-07-02T03:17:26;18.00;99.90
46758;DHT22;32509;47.750;-3.396;2023-07-02T03:19:52;18.00;99.90
46758;DHT22;32509;47.750;-3.396;2023-07-02T03:22:17;18.00;99.90
46758;DHT22;32509;47.750;-3.396;2023-07-02T03:24:43;18.00;99.90
46758;DHT22;32509;47.750;-3.396;2023-07-02T03:27:09;18.00;99.90
46758;DHT22;32509;47.750;-3.396;2023-07-02T03:29:35;17.90;99.90
46758;DHT22;32509;47.750;-3.396;2023-07-02T03:32:04;17.90;99.90
46758;DHT22;32509;47.750;-3.396;2023-07-02T03:34:30;18.00;99.90
46758;DHT22;32509;47.750;-3.396;2023-07-02T03:36:56;17.90;99.90
46758;DHT22;32509;47.750;-3.396;2023-07-02T03:39:22;18.00;99.90
46758;DHT22;32509;47.750;-3.396;2023-07-02T03:41:47;17.90;99.90
46758;DHT22;32509;47.750;-3.396;2023-07-02T03:44:13;17.90;99.90
46758;DHT22;32509;47.750;-3.396;2023-07-02T03:46:39;17.90;99.90
46758;DHT22;32509;47.750;-3.396;2023-07-02T03:49:05;18.00;99.90
46758;DHT22;32509;47.750;-3.396;2023-07-02T03:51:31;17.90;99.90
46758;DHT22;32509;47.750;-3.396;2023-07-02T03:53:58;17.90;99.90
46758;DHT22;32509;47.750;-3.396;2023-07-02T03:56:24;17.90;99.90
46758;DHT22;32509;47.750;-3.396;2023-07-02T03:58:50;17.90;99.90
46758;DHT22;32509;47.750;-3.396;2023-07-02T04:01:16;17.90;99.90
46758;DHT22;32509;47.750;-3.396;2023-07-02T04:03:52;17.90;99.90
46758;DHT22;32509;47.750;-3.396;2023-07-02T04:06:18;17.90;99.90
46758;DHT22;32509;47.750;-3.396;2023-07-02T04:08:45;17.90;99.90
46758;DHT22;32509;47.750;-3.396;2023-07-02T04:11:11;17.80;99.90
46758;DHT22;32509;47.750;-3.396;2023-07-02T04:13:38;17.80;99.90
46758;DHT22;32509;47.750;-3.396;2023-07-02T04:16:04;17.80;99.90
46758;DHT22;32509;47.750;-3.396;2023-07-02T04:18:30;17.80;99.90
46758;DHT22;32509;47.750;-3.396;2023-07-02T04:20:57;17.80;99.90
46758;DHT22;32509;47.750;-3.396;2023-07-02T04:23:24;17.80;99.90
46758;DHT22;32509;47.750;-3.396;2023-07-02T04:25:49;17.80;99.90
46758;DHT22;32509;47.750;-3.396;2023-07-02T04:28:16;17.80;99.90
46758;DHT22;32509;47.750;-3.396;2023-07-02T04:30:42;17.80;99.90
46758;DHT22;32509;47.750;-3.396;2023-07-02T04:33:08;17.80;99.90
46758;DHT22;32509;47.750;-3.396;2023-07-02T04:35:34;17.80;99.90
46758;DHT22;32509;47.750;-3.396;2023-07-02T04:38:01;17.80;99.90
46758;DHT22;32509;47.750;-3.396;2023-07-02T04:40:27;17.80;99.90
46758;DHT22;32509;47.750;-3.396;2023-07-02T04:42:53;17.80;99.90
46758;DHT22;32509;47.750;-3.396;2023-07-02T04:45:24;17.70;99.90
46758;DHT22;32509;47.750;-3.396;2023-07-02T04:47:50;17.70;99.90
46758;DHT22;32509;47.750;-3.396;2023-07-02T04:50:19;17.80;99.90
46758;DHT22;32509;47.750;-3.396;2023-07-02T04:52:45;17.80;99.90
46758;DHT22;32509;47.750;-3.396;2023-07-02T04:55:11;17.80;99.90
46758;DHT22;32509;47.750;-3.396;2023-07-02T04:57:37;17.80;99.90
46758;DHT22;32509;47.750;-3.396;2023-07-02T05:00:03;17.80;99.90
46758;DHT22;32509;47.750;-3.396;2023-07-02T05:02:31;17.80;99.90
46758;DHT22;32509;47.750;-3.396;2023-07-02T05:04:57;17.80;99.90
46758;DHT22;32509;47.750;-3.396;2023-07-02T05:07:23;17.80;99.90
46758;DHT22;32509;47.750;-3.396;2023-07-02T05:09:48;17.80;99.90
46758;DHT22;32509;47.750;-3.396;2023-07-02T05:12:17;17.80;99.90
46758;DHT22;32509;47.750;-3.396;2023-07-02T05:14:42;17.80;99.90
46758;DHT22;32509;47.750;-3.396;2023-07-02T05:17:08;17.80;99.90
46758;DHT22;32509;47.750;-3.396;2023-07-02T05:19:34;17.80;99.90
46758;DHT22;32509;47.750;-3.396;2023-07-02T05:22:00;17.80;99.90
46758;DHT22;32509;47.750;-3.396;2023-07-02T05:24:25;17.80;99.90
46758;DHT22;32509;47.750;-3.396;2023-07-02T05:26:51;17.80;99.90
46758;DHT22;32509;47.750;-3.396;2023-07-02T05:29:17;17.90;99.90
46758;DHT22;32509;47.750;-3.396;2023-07-02T05:31:43;17.80;99.90
46758;DHT22;32509;47.750;-3.396;2023-07-02T05:34:08;17.90;99.90
46758;DHT22;32509;47.750;-3.396;2023-07-02T05:36:34;17.90;99.90
46758;DHT22;32509;47.750;-3.396;2023-07-02T05:39:03;17.90;99.90
46758;DHT22;32509;47.750;-3.396;2023-07-02T05:41:29;17.90;99.90
46758;DHT22;32509;47.750;-3.396;2023-07-02T05:43:59;17.90;99.90
46758;DHT22;32509;47.750;-3.396;2023-07-02T05:46:26;18.00;99.90
46758;DHT22;32509;47.750;-3.396;2023-07-02T05:48:51;18.00;99.90
46758;DHT22;32509;47.750;-3.396;2023-07-02T05:51:21;18.00;99.90
46758;DHT22;32509;47.750;-3.396;2023-07-02T05:53:47;18.10;99.90
46758;DHT22;32509;47.750;-3.396;2023-07-02T05:56:13;18.10;99.90
46758;DHT22;32509;47.750;-3.396;2023-07-02T05:58:39;18.10;99.90
46758;DHT22;32509;47.750;-3.396;2023-07-02T06:01:04;18.10;99.90
46758;DHT22;32509;47.750;-3.396;2023-07-02T06:03:31;18.10;99.90
46758;DHT22;32509;47.750;-3.396;2023-07-02T06:05:57;18.10;99.90
46758;DHT22;32509;47.750;-3.396;2023-07-02T06:08:23;18.20;99.90
46758;DHT22;32509;47.750;-3.396;2023-07-02T06:10:48;18.20;99.90
46758;DHT22;32509;47.750;-3.396;2023-07-02T06:13:15;18.20;99.90
46758;DHT22;32509;47.750;-3.396;2023-07-02T06:15:41;18.20;99.90
46758;DHT22;32509;47.750;-3.396;2023-07-02T06:18:07;18.20;99.90
46758;DHT22;32509;47.750;-3.396;2023-07-02T06:20:32;18.20;99.90
46758;DHT22;32509;47.750;-3.396;2023-07-02T06:22:58;18.20;99.90
46758;DHT22;32509;47.750;-3.396;2023-07-02T06:25:24;18.20;99.90
46758;DHT22;32509;47.750;-3.396;2023-07-02T06:27:50;18.30;99.90
46758;DHT22;32509;47.750;-3.396;2023-07-02T06:30:16;18.30;99.90
46758;DHT22;32509;47.750;-3.396;2023-07-02T06:32:41;18.30;99.90
46758;DHT22;32509;47.750;-3.396;2023-07-02T06:35:07;18.30;99.90
46758;DHT22;32509;47.750;-3.396;2023-07-02T06:37:34;18.30;99.90
46758;DHT22;32509;47.750;-3.396;2023-07-02T06:39:59;18.30;99.90
46758;DHT22;32509;47.750;-3.396;2023-07-02T06:42:25;18.30;99.90
46758;DHT22;32509;47.750;-3.396;2023-07-02T06:44:51;18.30;99.90
46758;DHT22;32509;47.750;-3.396;2023-07-02T06:47:17;18.30;99.90
46758;DHT22;32509;47.750;-3.396;2023-07-02T06:49:43;18.30;99.90
46758;DHT22;32509;47.750;-3.396;2023-07-02T06:52:09;18.40;99.90
46758;DHT22;32509;47.750;-3.396;2023-07-02T06:54:34;18.30;99.90
46758;DHT22;32509;47.750;-3.396;2023-07-02T06:57:01;18.40;99.90
46758;DHT22;32509;47.750;-3.396;2023-07-02T06:59:26;18.40;99.90
46758;DHT22;32509;47.750;-3.396;2023-07-02T07:01:52;18.40;99.90
46758;DHT22;32509;47.750;-3.396;2023-07-02T07:04:18;18.40;99.90
46758;DHT22;32509;47.750;-3.396;2023-07-02T07:06:44;18.50;99.90
46758;DHT22;32509;47.750;-3.396;2023-07-02T07:09:10;18.50;99.90
46758;DHT22;32509;47.750;-3.396;2023-07-02T07:11:36;18.50;99.90
46758;DHT22;32509;47.750;-3.396;2023-07-02T07:14:01;18.50;99.90
46758;DHT22;32509;47.750;-3.396;2023-07-02T07:16:27;18.50;99.90
46758;DHT22;32509;47.750;-3.396;2023-07-02T07:18:53;18.60;99.90
46758;DHT22;32509;47.750;-3.396;2023-07-02T07:21:19;18.60;99.90
46758;DHT22;32509;47.750;-3.396;2023-07-02T07:23:44;18.60;99.90
46758;DHT22;32509;47.750;-3.396;2023-07-02T07:26:10;18.60;99.90
46758;DHT22;32509;47.750;-3.396;2023-07-02T07:28:36;18.60;99.90
46758;DHT22;32509;47.750;-3.396;2023-07-02T07:31:02;18.70;99.90
46758;DHT22;32509;47.750;-3.396;2023-07-02T07:33:28;18.70;99.90
46758;DHT22;32509;47.750;-3.396;2023-07-02T07:35:54;18.70;99.90
46758;DHT22;32509;47.750;-3.396;2023-07-02T07:38:19;18.70;99.90
46758;DHT22;32509;47.750;-3.396;2023-07-02T07:40:45;18.80;99.90
46758;DHT22;32509;47.750;-3.396;2023-07-02T07:43:11;18.80;99.90
46758;DHT22;32509;47.750;-3.396;2023-07-02T07:45:37;18.80;99.90
46758;DHT22;32509;47.750;-3.396;2023-07-02T07:48:06;18.80;99.90
46758;DHT22;32509;47.750;-3.396;2023-07-02T07:50:35;18.90;99.90
46758;DHT22;32509;47.750;-3.396;2023-07-02T07:53:00;18.90;99.90
46758;DHT22;32509;47.750;-3.396;2023-07-02T07:55:26;18.90;99.90
46758;DHT22;32509;47.750;-3.396;2023-07-02T07:57:52;18.90;99.90
46758;DHT22;32509;47.750;-3.396;2023-07-02T08:00:18;18.90;99.90
46758;DHT22;32509;47.750;-3.396;2023-07-02T08:02:45;19.00;99.90
46758;DHT22;32509;47.750;-3.396;2023-07-02T08:05:12;19.00;99.90
46758;DHT22;32509;47.750;-3.396;2023-07-02T08:07:39;19.00;99.90
46758;DHT22;32509;47.750;-3.396;2023-07-02T08:10:06;19.00;99.90
46758;DHT22;32509;47.750;-3.396;2023-07-02T08:12:33;19.10;99.90
46758;DHT22;32509;47.750;-3.396;2023-07-02T08:14:59;19.10;99.90
46758;DHT22;32509;47.750;-3.396;2023-07-02T08:17:25;19.10;99.90
46758;DHT22;32509;47.750;-3.396;2023-07-02T08:19:51;19.10;99.90
46758;DHT22;32509;47.750;-3.396;2023-07-02T08:22:17;19.20;99.90
46758;DHT22;32509;47.750;-3.396;2023-07-02T08:24:42;19.20;99.90
46758;DHT22;32509;47.750;-3.396;2023-07-02T08:27:08;19.20;99.90
46758;DHT22;32509;47.750;-3.396;2023-07-02T08:29:35;19.20;99.90
46758;DHT22;32509;47.750;-3.396;2023-07-02T08:32:01;19.20;99.90
46758;DHT22;32509;47.750;-3.396;2023-07-02T08:34:27;19.20;99.90
46758;DHT22;32509;47.750;-3.396;2023-07-02T08:36:53;19.20;99.90
46758;DHT22;32509;47.750;-3.396;2023-07-02T08:39:19;19.20;99.90
46758;DHT22;32509;47.750;-3.396;2023-07-02T08:41:46;19.30;99.90
46758;DHT22;32509;47.750;-3.396;2023-07-02T08:44:13;19.30;99.90
46758;DHT22;32509;47.750;-3.396;2023-07-02T08:46:42;19.30;99.90
46758;DHT22;32509;47.750;-3.396;2023-07-02T08:49:09;19.30;99.90
46758;DHT22;32509;47.750;-3.396;2023-07-02T08:51:35;19.30;99.90
46758;DHT22;32509;47.750;-3.396;2023-07-02T08:54:01;19.30;99.90
46758;DHT22;32509;47.750;-3.396;2023-07-02T08:56:28;19.40;99.90
46758;DHT22;32509;47.750;-3.396;2023-07-02T08:58:54;19.40;99.90
46758;DHT22;32509;47.750;-3.396;2023-07-02T09:01:20;19.40;99.90
46758;DHT22;32509;47.750;-3.396;2023-07-02T09:03:46;19.40;99.90
46758;DHT22;32509;47.750;-3.396;2023-07-02T09:06:12;19.40;99.90
46758;DHT22;32509;47.750;-3.396;2023-07-02T09:08:38;19.40;99.90
46758;DHT22;32509;47.750;-3.396;2023-07-02T09:11:12;19.40;99.90
46758;DHT22;32509;47.750;-3.396;2023-07-02T09:13:44;19.40;99.90
46758;DHT22;32509;47.750;-3.396;2023-07-02T09:16:30;19.40;99.90
46758;DHT22;32509;47.750;-3.396;2023-07-02T09:18:57;19.50;99.90
46758;DHT22;32509;47.750;-3.396;2023-07-02T09:21:44;19.50;99.90
46758;DHT22;32509;47.750;-3.396;2023-07-02T09:24:20;19.50;99.90
46758;DHT22;32509;47.750;-3.396;2023-07-02T09:26:48;19.50;99.90
46758;DHT22;32509;47.750;-3.396;2023-07-02T09:29:22;19.60;99.90
46758;DHT22;32509;47.750;-3.396;2023-07-02T09:31:52;19.60;99.90
46758;DHT22;32509;47.750;-3.396;2023-07-02T09:34:18;19.60;99.90
46758;DHT22;32509;47.750;-3.396;2023-07-02T09:36:44;19.60;99.90
46758;DHT22;32509;47.750;-3.396;2023-07-02T09:39:12;19.60;99.90
46758;DHT22;32509;47.750;-3.396;2023-07-02T09:41:41;19.60;99.90
46758;DHT22;32509;47.750;-3.396;2023-07-02T09:44:11;19.60;99.90
46758;DHT22;32509;47.750;-3.396;2023-07-02T09:46:42;19.60;99.90
46758;DHT22;32509;47.750;-3.396;2023-07-02T09:49:14;19.70;99.90
46758;DHT22;32509;47.750;-3.396;2023-07-02T09:51:41;19.70;99.90
46758;DHT22;32509;47.750;-3.396;2023-07-02T09:54:07;19.70;99.90
46758;DHT22;32509;47.750;-3.396;2023-07-02T09:56:34;19.70;99.90
46758;DHT22;32509;47.750;-3.396;2023-07-02T09:59:00;19.70;99.90
46758;DHT22;32509;47.750;-3.396;2023-07-02T10:01:26;19.70;99.90
46758;DHT22;32509;47.750;-3.396;2023-07-02T10:03:52;19.70;99.90
46758;DHT22;32509;47.750;-3.396;2023-07-02T10:06:18;19.80;99.90
46758;DHT22;32509;47.750;-3.396;2023-07-02T10:08:56;19.80;99.90
46758;DHT22;32509;47.750;-3.396;2023-07-02T10:11:33;19.80;99.90
46758;DHT22;32509;47.750;-3.396;2023-07-02T10:14:00;19.80;99.90
46758;DHT22;32509;47.750;-3.396;2023-07-02T10:16:26;19.80;99.90
46758;DHT22;32509;47.750;-3.396;2023-07-02T10:19:14;19.80;99.90
46758;DHT22;32509;47.750;-3.396;2023-07-02T10:21:39;19.80;99.90
46758;DHT22;32509;47.750;-3.396;2023-07-02T10:24:10;19.70;99.90
46758;DHT22;32509;47.750;-3.396;2023-07-02T10:26:35;19.70;99.90
46758;DHT22;32509;47.750;-3.396;2023-07-02T10:29:01;19.70;99.90
46758;DHT22;32509;47.750;-3.396;2023-07-02T10:31:28;19.70;99.90
46758;DHT22;32509;47.750;-3.396;2023-07-02T10:33:54;19.70;99.90
46758;DHT22;32509;47.750;-3.396;2023-07-02T10:36:24;19.70;99.90
46758;DHT22;32509;47.750;-3.396;2023-07-02T10:38:50;19.80;99.90
46758;DHT22;32509;47.750;-3.396;2023-07-02T10:41:25;19.80;99.90
46758;DHT22;32509;47.750;-3.396;2023-07-02T10:43:51;19.80;99.90
46758;DHT22;32509;47.750;-3.396;2023-07-02T10:46:23;19.80;99.90
46758;DHT22;32509;47.750;-3.396;2023-07-02T10:48:56;19.80;99.90
46758;DHT22;32509;47.750;-3.396;2023-07-02T10:51:22;19.80;99.90
46758;DHT22;32509;47.750;-3.396;2023-07-02T10:54:02;19.90;99.90
46758;DHT22;32509;47.750;-3.396;2023-07-02T10:56:30;20.00;99.90
46758;DHT22;32509;47.750;-3.396;2023-07-02T10:58:56;20.00;99.90
46758;DHT22;32509;47.750;-3.396;2023-07-02T11:01:23;20.10;99.90
46758;DHT22;32509;47.750;-3.396;2023-07-02T11:03:59;20.10;99.90
46758;DHT22;32509;47.750;-3.396;2023-07-02T11:06:26;20.10;99.90
46758;DHT22;32509;47.750;-3.396;2023-07-02T11:08:52;20.10;99.90
46758;DHT22;32509;47.750;-3.396;2023-07-02T11:11:21;20.10;99.90
46758;DHT22;32509;47.750;-3.396;2023-07-02T11:13:48;20.10;99.90
46758;DHT22;32509;47.750;-3.396;2023-07-02T11:16:23;20.20;99.90
46758;DHT22;32509;47.750;-3.396;2023-07-02T11:19:15;20.10;99.90
46758;DHT22;32509;47.750;-3.396;2023-07-02T11:21:52;20.20;99.90
46758;DHT22;32509;47.750;-3.396;2023-07-02T11:24:27;20.20;99.90
46758;DHT22;32509;47.750;-3.396;2023-07-02T11:26:54;20.20;99.90
46758;DHT22;32509;47.750;-3.396;2023-07-02T11:29:20;20.20;99.90
46758;DHT22;32509;47.750;-3.396;2023-07-02T11:31:45;20.20;99.90
46758;DHT22;32509;47.750;-3.396;2023-07-02T11:34:16;20.20;99.90
46758;DHT22;32509;47.750;-3.396;2023-07-02T11:36:42;20.20;99.90
46758;DHT22;32509;47.750;-3.396;2023-07-02T11:39:11;20.20;99.90
46758;DHT22;32509;47.750;-3.396;2023-07-02T11:41:44;20.30;99.90
46758;DHT22;32509;47.750;-3.396;2023-07-02T11:44:11;20.30;99.90
46758;DHT22;32509;47.750;-3.396;2023-07-02T11:46:37;20.30;99.90
46758;DHT22;32509;47.750;-3.396;2023-07-02T11:49:04;20.30;99.90
46758;DHT22;32509;47.750;-3.396;2023-07-02T11:51:31;20.40;99.90
46758;DHT22;32509;47.750;-3.396;2023-07-02T11:53:57;20.40;99.90
46758;DHT22;32509;47.750;-3.396;2023-07-02T11:56:23;20.40;99.90
46758;DHT22;32509;47.750;-3.396;2023-07-02T11:58:49;20.40;99.90
46758;DHT22;32509;47.750;-3.396;2023-07-02T12:01:15;20.40;99.90
46758;DHT22;32509;47.750;-3.396;2023-07-02T12:03:41;20.30;99.90
46758;DHT22;32509;47.750;-3.396;2023-07-02T12:06:07;20.30;99.90
46758;DHT22;32509;47.750;-3.396;2023-07-02T12:08:32;20.40;99.90
46758;DHT22;32509;47.750;-3.396;2023-07-02T12:10:58;20.40;99.90
46758;DHT22;32509;47.750;-3.396;2023-07-02T12:13:24;20.40;99.90
46758;DHT22;32509;47.750;-3.396;2023-07-02T12:15:49;20.40;99.90
46758;DHT22;32509;47.750;-3.396;2023-07-02T12:18:16;20.40;99.90
46758;DHT22;32509;47.750;-3.396;2023-07-02T12:20:43;20.40;99.90
46758;DHT22;32509;47.750;-3.396;2023-07-02T12:23:09;20.40;99.90
46758;DHT22;32509;47.750;-3.396;2023-07-02T12:25:37;20.40;99.90
46758;DHT22;32509;47.750;-3.396;2023-07-02T12:28:04;20.50;99.90
46758;DHT22;32509;47.750;-3.396;2023-07-02T12:30:30;20.50;99.90
46758;DHT22;32509;47.750;-3.396;2023-07-02T12:32:56;20.50;99.90
46758;DHT22;32509;47.750;-3.396;2023-07-02T12:35:22;20.60;99.90
46758;DHT22;32509;47.750;-3.396;2023-07-02T12:37:52;20.60;99.90
46758;DHT22;32509;47.750;-3.396;2023-07-02T12:40:19;20.60;99.90
46758;DHT22;32509;47.750;-3.396;2023-07-02T12:42:46;20.70;99.90
46758;DHT22;32509;47.750;-3.396;2023-07-02T12:45:13;20.70;99.90
46758;DHT22;32509;47.750;-3.396;2023-07-02T12:47:40;20.70;99.90
46758;DHT22;32509;47.750;-3.396;2023-07-02T12:50:07;20.70;99.90
46758;DHT22;32509;47.750;-3.396;2023-07-02T12:52:33;20.60;99.90
46758;DHT22;32509;47.750;-3.396;2023-07-02T12:55:00;20.70;99.90
46758;DHT22;32509;47.750;-3.396;2023-07-02T12:57:26;20.70;99.90
46758;DHT22;32509;47.750;-3.396;2023-07-02T12:59:55;20.60;99.90
46758;DHT22;32509;47.750;-3.396;2023-07-02T13:02:22;20.60;99.90
46758;DHT22;32509;47.750;-3.396;2023-07-02T13:04:49;20.60;99.90
46758;DHT22;32509;47.750;-3.396;2023-07-02T13:07:15;20.70;99.90
46758;DHT22;32509;47.750;-3.396;2023-07-02T13:09:41;20.70;99.90
46758;DHT22;32509;47.750;-3.396;2023-07-02T13:12:07;20.70;99.90
46758;DHT22;32509;47.750;-3.396;2023-07-02T13:14:34;20.80;99.90
46758;DHT22;32509;47.750;-3.396;2023-07-02T13:17:00;20.80;99.90
46758;DHT22;32509;47.750;-3.396;2023-07-02T13:19:26;20.80;99.90
46758;DHT22;32509;47.750;-3.396;2023-07-02T13:21:52;20.80;99.90
46758;DHT22;32509;47.750;-3.396;2023-07-02T13:24:18;20.80;99.90
46758;DHT22;32509;47.750;-3.396;2023-07-02T13:26:43;20.80;99.90
46758;DHT22;32509;47.750;-3.396;2023-07-02T13:29:09;20.80;99.90
46758;DHT22;32509;47.750;-3.396;2023-07-02T13:31:35;20.80;99.90
46758;DHT22;32509;47.750;-3.396;2023-07-02T13:34:01;20.80;99.90
46758;DHT22;32509;47.750;-3.396;2023-07-02T13:36:26;20.90;99.90
46758;DHT22;32509;47.750;-3.396;2023-07-02T13:38:54;20.90;99.90
46758;DHT22;32509;47.750;-3.396;2023-07-02T13:41:20;20.90;99.90
46758;DHT22;32509;47.750;-3.396;2023-07-02T13:43:46;20.90;99.90
46758;DHT22;32509;47.750;-3.396;2023-07-02T13:46:14;20.80;99.90
46758;DHT22;32509;47.750;-3.396;2023-07-02T13:48:40;20.80;99.90
46758;DHT22;32509;47.750;-3.396;2023-07-02T13:51:06;20.80;99.90
46758;DHT22;32509;47.750;-3.396;2023-07-02T13:53:34;20.80;99.90
46758;DHT22;32509;47.750;-3.396;2023-07-02T13:56:00;20.80;99.90
46758;DHT22;32509;47.750;-3.396;2023-07-02T13:58:25;20.80;99.90
46758;DHT22;32509;47.750;-3.396;2023-07-02T14:00:51;20.90;99.90
46758;DHT22;32509;47.750;-3.396;2023-07-02T14:03:17;20.90;99.90
46758;DHT22;32509;47.750;-3.396;2023-07-02T14:05:43;20.90;99.90
46758;DHT22;32509;47.750;-3.396;2023-07-02T14:08:09;20.90;99.90
46758;DHT22;32509;47.750;-3.396;2023-07-02T14:10:35;20.90;99.90
46758;DHT22;32509;47.750;-3.396;2023-07-02T14:13:01;20.90;99.90
46758;DHT22;32509;47.750;-3.396;2023-07-02T14:15:26;21.00;99.90
46758;DHT22;32509;47.750;-3.396;2023-07-02T14:17:53;21.00;99.90
46758;DHT22;32509;47.750;-3.396;2023-07-02T14:20:20;20.90;99.90
46758;DHT22;32509;47.750;-3.396;2023-07-02T14:22:46;21.00;99.90
46758;DHT22;32509;47.750;-3.396;2023-07-02T14:25:12;21.00;99.90
46758;DHT22;32509;47.750;-3.396;2023-07-02T14:27:38;21.00;99.90
46758;DHT22;32509;47.750;-3.396;2023-07-02T14:30:04;21.00;99.90
46758;DHT22;32509;47.750;-3.396;2023-07-02T14:32:33;21.00;99.90
46758;DHT22;32509;47.750;-3.396;2023-07-02T14:35:01;21.00;99.90
46758;DHT22;32509;47.750;-3.396;2023-07-02T14:37:27;21.10;99.90
46758;DHT22;32509;47.750;-3.396;2023-07-02T14:39:53;21.10;99.90
46758;DHT22;32509;47.750;-3.396;2023-07-02T14:42:18;21.10;99.90
46758;DHT22;32509;47.750;-3.396;2023-07-02T14:44:44;21.10;99.90
46758;DHT22;32509;47.750;-3.396;2023-07-02T14:47:10;21.10;99.90
46758;DHT22;32509;47.750;-3.396;2023-07-02T14:49:37;21.10;99.90
46758;DHT22;32509;47.750;-3.396;2023-07-02T14:52:03;21.10;99.90
46758;DHT22;32509;47.750;-3.396;2023-07-02T14:54:29;21.10;99.90
46758;DHT22;32509;47.750;-3.396;2023-07-02T14:56:55;21.10;99.90
46758;DHT22;32509;47.750;-3.396;2023-07-02T14:59:21;21.00;99.90
46758;DHT22;32509;47.750;-3.396;2023-07-02T15:01:47;21.00;99.90
46758;DHT22;32509;47.750;-3.396;2023-07-02T15:04:12;21.00;99.90
46758;DHT22;32509;47.750;-3.396;2023-07-02T15:06:38;21.00;99.90
46758;DHT22;32509;47.750;-3.396;2023-07-02T15:09:04;21.00;99.90
46758;DHT22;32509;47.750;-3.396;2023-07-02T15:11:30;21.00;99.90
46758;DHT22;32509;47.750;-3.396;2023-07-02T15:13:55;21.00;99.90